createdAt,value
2022-11-04T00:03:03.814Z,60.10
2022-11-04T00:08:25.272Z,60.10
2022-11-04T00:13:31.207Z,60.10
2022-11-04T00:18:36.355Z,60.20
2022-11-04T00:23:56.634Z,60.10
2022-11-04T00:29:00.946Z,60.10
2022-11-04T00:34:03.951Z,60.10
2022-11-04T00:39:06.969Z,60.10
2022-11-04T00:44:11.256Z,60.20
2022-11-04T00:49:14.262Z,60.10
2022-11-04T00:54:17.318Z,60.10
2022-11-04T00:59:22.380Z,60.10
2022-11-04T01:04:25.434Z,60.10
2022-11-04T01:09:28.631Z,60.10
2022-11-04T01:14:33.075Z,60.00
2022-11-04T01:19:36.211Z,60.00
2022-11-04T01:24:39.167Z,59.90
2022-11-04T01:29:43.514Z,60.00
2022-11-04T01:34:47.917Z,60.00
2022-11-04T01:39:51.004Z,60.10
2022-11-04T01:44:58.195Z,60.10
2022-11-04T01:50:08.331Z,60.30
2022-11-04T01:55:15.178Z,60.20
2022-11-04T02:00:20.292Z,60.00
2022-11-04T02:05:24.127Z,59.80
2022-11-04T02:10:29.033Z,59.70
2022-11-04T02:15:42.077Z,59.60
2022-11-04T02:21:10.603Z,59.60
2022-11-04T02:26:38.747Z,59.60
2022-11-04T02:31:51.667Z,59.60
2022-11-04T02:37:06.548Z,60.30
2022-11-04T02:42:13.859Z,59.50
2022-11-04T02:47:23.029Z,59.60
2022-11-04T02:52:34.336Z,59.60
2022-11-04T02:57:41.310Z,59.50
2022-11-04T03:02:50.181Z,59.50
2022-11-04T03:07:57.708Z,59.50
2022-11-04T03:13:05.696Z,59.60
2022-11-04T03:18:19.833Z,59.60
2022-11-04T03:23:23.134Z,59.60
2022-11-04T03:28:35.251Z,59.40
2022-11-04T03:33:44.755Z,59.50
2022-11-04T03:38:48.145Z,59.60
2022-11-04T03:43:51.274Z,59.30
2022-11-04T03:48:57.215Z,59.40
2022-11-04T03:54:00.609Z,59.40
2022-11-04T03:59:17.322Z,59.20
2022-11-04T04:04:29.147Z,59.20
2022-11-04T04:09:38.370Z,59.20
2022-11-04T04:14:44.305Z,59.20
2022-11-04T04:19:53.696Z,59.20
2022-11-04T04:25:16.985Z,59.10
2022-11-04T04:30:20.134Z,59.10
2022-11-04T04:35:43.511Z,59.10
2022-11-04T04:41:11.387Z,59.10
2022-11-04T04:46:14.891Z,59.00
2022-11-04T04:51:19.458Z,59.00
2022-11-04T04:56:22.423Z,59.00
2022-11-04T05:01:25.773Z,58.90
2022-11-04T05:06:30.113Z,58.80
2022-11-04T05:11:33.412Z,59.60
2022-11-04T05:16:40.612Z,58.80
2022-11-04T05:21:45.333Z,58.90
2022-11-04T05:26:48.260Z,58.90
2022-11-04T05:31:51.273Z,58.90
2022-11-04T05:36:55.636Z,58.80
2022-11-04T05:41:58.806Z,58.90
2022-11-04T05:47:01.830Z,58.80
2022-11-04T05:52:06.753Z,58.70
2022-11-04T05:57:11.392Z,58.60
2022-11-04T06:02:14.665Z,58.60
2022-11-04T06:07:19.017Z,58.80
2022-11-04T06:12:22.195Z,58.90
2022-11-04T06:17:25.263Z,58.80
2022-11-04T06:22:29.644Z,58.60
2022-11-04T06:27:32.630Z,58.70
2022-11-04T06:32:35.572Z,58.70
2022-11-04T06:37:40.117Z,58.60
2022-11-04T06:42:44.927Z,58.40
2022-11-04T06:47:47.914Z,58.40
2022-11-04T06:52:52.284Z,58.50
2022-11-04T06:57:55.243Z,58.60
2022-11-04T07:02:58.345Z,58.70
2022-11-04T07:08:02.787Z,58.60
2022-11-04T07:13:05.779Z,58.60
2022-11-04T07:18:09.127Z,58.40
2022-11-04T07:23:13.755Z,58.40
2022-11-04T07:28:17.227Z,58.50
2022-11-04T07:33:20.243Z,58.50
2022-11-04T07:38:24.698Z,58.60
2022-11-04T07:43:27.959Z,58.60
2022-11-04T07:48:31.282Z,58.80
2022-11-04T07:53:35.705Z,59.20
2022-11-04T07:58:39.129Z,59.30
2022-11-04T08:03:42.167Z,59.50
2022-11-04T08:08:48.199Z,59.70
2022-11-04T08:13:51.679Z,60.00
2022-11-04T08:18:55.251Z,60.20
2022-11-04T08:23:59.699Z,60.30
2022-11-04T08:29:03.525Z,60.40
2022-11-04T08:34:08.476Z,60.20
2022-11-04T08:39:14.117Z,60.00
2022-11-04T08:44:17.407Z,60.10
2022-11-04T08:49:21.524Z,60.20
2022-11-04T08:54:26.760Z,60.10
2022-11-04T08:59:29.834Z,60.00
2022-11-04T09:04:32.953Z,59.90
2022-11-04T09:09:39.434Z,59.90
2022-11-04T09:14:42.519Z,59.80
2022-11-04T09:19:45.674Z,59.70
2022-11-04T09:24:50.335Z,59.50
2022-11-04T09:29:53.621Z,59.50
2022-11-04T09:34:56.720Z,59.60
2022-11-04T09:40:01.126Z,59.60
2022-11-04T09:45:26.270Z,59.70
2022-11-04T09:50:33.047Z,59.80
2022-11-04T09:55:46.190Z,60.00
2022-11-04T10:00:58.356Z,59.90
2022-11-04T10:06:14.359Z,59.80
2022-11-04T10:11:25.569Z,60.00
2022-11-04T10:16:43.632Z,59.90
2022-11-04T10:21:57.826Z,59.90
2022-11-04T10:27:05.635Z,59.80
2022-11-04T10:32:21.060Z,59.90
2022-11-04T10:37:27.126Z,59.80
2022-11-04T10:42:31.614Z,59.80
2022-11-04T10:47:43.884Z,59.80
2022-11-04T10:52:46.993Z,59.70
2022-11-04T10:57:51.505Z,59.50
2022-11-04T11:02:54.574Z,59.30
2022-11-04T11:07:59.058Z,59.40
2022-11-04T11:13:07.044Z,59.40
2022-11-04T11:18:15.734Z,59.40
2022-11-04T11:23:39.171Z,59.40
2022-11-04T11:28:54.509Z,59.30
2022-11-04T11:34:05.771Z,59.40
2022-11-04T11:39:17.415Z,59.30
2022-11-04T11:44:28.624Z,59.00
2022-11-04T11:49:34.387Z,59.00
2022-11-04T11:54:39.116Z,59.30
2022-11-04T12:10:51.718Z,59.30
2022-11-04T12:16:10.447Z,59.20
2022-11-04T12:21:19.139Z,58.90
2022-11-04T12:26:31.730Z,58.70
2022-11-04T12:31:44.460Z,58.50
2022-11-04T12:37:01.066Z,58.60
2022-11-04T12:42:22.942Z,58.30
2022-11-04T12:47:37.406Z,58.10
2022-11-04T12:53:00.902Z,58.10
2022-11-04T12:58:14.815Z,58.00
2022-11-04T13:03:25.134Z,58.10
2022-11-04T13:08:34.131Z,57.90
2022-11-04T13:13:40.471Z,58.00
2022-11-04T13:18:45.752Z,57.90
2022-11-04T13:23:53.923Z,58.00
2022-11-04T13:29:08.640Z,58.00
2022-11-04T13:34:23.558Z,58.00
2022-11-04T13:39:34.060Z,58.00
2022-11-04T13:44:39.521Z,58.10
2022-11-04T13:49:50.368Z,58.20
2022-11-04T13:54:57.167Z,58.00
2022-11-04T14:00:23.691Z,58.30
2022-11-04T14:06:08.684Z,58.00
2022-11-04T14:11:13.745Z,57.80
2022-11-04T14:16:41.946Z,57.90
2022-11-04T14:22:08.118Z,57.70
2022-11-04T14:27:25.712Z,57.80
2022-11-04T14:32:34.408Z,57.70
2022-11-04T14:37:39.090Z,57.90
2022-11-04T14:42:50.786Z,57.90
2022-11-04T14:47:57.583Z,57.90
2022-11-04T14:53:05.180Z,57.90
2022-11-04T14:58:24.265Z,58.00
2022-11-04T15:08:55.822Z,57.90
2022-11-04T15:14:16.117Z,57.80
2022-11-04T15:19:27.803Z,57.90
2022-11-04T15:24:32.650Z,58.00
2022-11-04T15:29:35.691Z,58.20
2022-11-04T15:34:38.849Z,58.40
2022-11-04T15:39:46.013Z,58.50
2022-11-04T15:44:52.206Z,58.50
2022-11-04T15:50:04.180Z,58.30
2022-11-04T15:55:22.278Z,58.40
2022-11-04T16:00:26.463Z,58.50
2022-11-04T16:05:33.145Z,58.30
2022-11-04T16:10:39.502Z,58.30
2022-11-04T16:15:45.398Z,58.40
2022-11-04T16:20:50.438Z,58.10
2022-11-04T16:25:59.318Z,58.00
2022-11-04T16:31:04.442Z,58.20
2022-11-04T16:36:13.277Z,58.30
2022-11-04T16:41:17.553Z,58.20
2022-11-04T16:46:21.814Z,58.10
2022-11-04T16:51:26.458Z,58.10
2022-11-04T16:56:30.842Z,58.10
2022-11-04T17:01:33.903Z,58.20
2022-11-04T17:06:40.360Z,58.20
2022-11-04T17:11:44.615Z,58.20
2022-11-04T17:16:47.521Z,58.10
2022-11-04T17:21:50.516Z,58.00
2022-11-04T17:26:54.850Z,58.30
2022-11-04T17:31:57.915Z,58.50
2022-11-04T17:37:01.173Z,58.40
2022-11-04T17:42:22.782Z,58.60
2022-11-04T17:47:26.289Z,58.60
2022-11-04T17:52:29.259Z,59.30
2022-11-04T17:57:34.741Z,58.50
2022-11-04T18:02:38.559Z,58.50
2022-11-04T18:07:42.179Z,58.50
2022-11-04T18:12:46.489Z,58.60
2022-11-04T18:17:50.744Z,58.90
2022-11-04T18:22:53.774Z,58.80
2022-11-04T18:27:58.070Z,58.80
2022-11-04T18:33:01.059Z,58.90
2022-11-04T18:38:04.060Z,58.90
2022-11-04T18:43:09.318Z,58.90
2022-11-04T18:48:12.686Z,58.80
2022-11-04T18:53:16.236Z,58.90
2022-11-04T18:58:20.604Z,59.00
2022-11-04T19:03:24.204Z,59.00
2022-11-04T19:08:28.392Z,59.00
2022-11-04T19:13:32.707Z,58.90
2022-11-04T19:18:35.987Z,58.90
2022-11-04T19:23:40.200Z,58.90
2022-11-04T19:28:48.603Z,59.10
2022-11-04T19:33:52.790Z,59.10
2022-11-04T19:38:56.767Z,59.20
2022-11-04T19:44:02.860Z,59.20
2022-11-04T19:49:06.852Z,59.30
2022-11-04T19:54:10.113Z,59.10
2022-11-04T19:59:15.625Z,59.10
2022-11-04T20:04:18.626Z,59.20
2022-11-04T20:09:22.370Z,59.20
2022-11-04T20:14:28.136Z,59.20
2022-11-04T20:19:31.106Z,59.30
2022-11-04T20:24:34.077Z,59.30
2022-11-04T20:29:39.018Z,59.20
2022-11-04T20:34:41.992Z,59.40
2022-11-04T20:39:45.506Z,59.30
2022-11-04T20:44:50.698Z,59.30
2022-11-04T20:49:53.721Z,59.40
2022-11-04T20:54:56.992Z,59.30
2022-11-04T21:00:01.389Z,59.30
2022-11-04T21:05:04.626Z,59.40
2022-11-04T21:10:08.436Z,59.40
2022-11-04T21:15:34.293Z,59.50
2022-11-04T21:20:39.645Z,59.70
2022-11-04T21:25:44.588Z,59.60
2022-11-04T21:30:51.044Z,59.70
2022-11-04T21:35:54.247Z,59.90
2022-11-04T21:41:02.091Z,59.70
2022-11-04T21:46:08.658Z,59.90
2022-11-04T21:51:14.201Z,59.80
2022-11-04T21:56:20.333Z,59.70
2022-11-04T22:01:27.047Z,59.70
2022-11-04T22:06:34.762Z,59.70
2022-11-04T22:11:39.588Z,59.50
2022-11-04T22:16:44.137Z,59.60
2022-11-04T22:21:48.005Z,59.50
2022-11-04T22:26:51.147Z,59.60
2022-11-04T22:31:55.477Z,59.70
2022-11-04T22:36:58.430Z,59.80
2022-11-04T22:42:01.437Z,59.60
2022-11-04T22:47:06.018Z,59.60
2022-11-04T22:52:09.393Z,59.80
2022-11-04T22:57:12.554Z,59.70
2022-11-04T23:02:17.057Z,59.80
2022-11-04T23:07:20.104Z,59.80
2022-11-04T23:12:40.416Z,59.80
2022-11-04T23:18:02.135Z,59.90
2022-11-04T23:23:22.493Z,60.00
2022-11-04T23:28:42.931Z,59.90
2022-11-04T23:34:04.937Z,60.60
2022-11-04T23:39:08.019Z,59.90
2022-11-04T23:44:31.016Z,59.90
2022-11-04T23:49:52.745Z,59.90
2022-11-04T23:55:13.058Z,60.00
